createdAt,value
2022-11-08T00:00:19.932Z,98668.91
2022-11-08T00:02:50.015Z,98672.97
2022-11-08T00:05:35.230Z,98674.16
2022-11-08T00:08:22.259Z,98677.81
2022-11-08T00:11:07.759Z,98678.78
2022-11-08T00:13:55.279Z,98677.81
2022-11-08T00:16:24.493Z,98674.72
2022-11-08T00:18:52.213Z,98672.88
2022-11-08T00:21:19.987Z,98668.59
2022-11-08T00:23:47.831Z,98667.84
2022-11-08T00:26:15.557Z,98661.03
2022-11-08T00:28:43.299Z,98657.59
2022-11-08T00:31:11.010Z,98659.72
2022-11-08T00:33:40.039Z,98656.63
2022-11-08T00:36:08.140Z,98664.44
2022-11-08T00:38:35.938Z,98664.81
2022-11-08T00:41:03.691Z,98660.38
2022-11-08T00:43:31.441Z,98653.28
2022-11-08T00:45:59.160Z,98649.66
2022-11-08T00:48:26.861Z,98655.47
2022-11-08T00:50:55.989Z,98650.97
2022-11-08T00:53:23.700Z,98646.63
2022-11-08T00:55:59.612Z,98650.59
2022-11-08T00:58:28.159Z,98650.19
2022-11-08T01:00:57.109Z,98641.09
2022-11-08T01:03:27.707Z,98644.31
2022-11-08T01:05:56.761Z,98647.06
2022-11-08T01:08:25.085Z,98642.66
2022-11-08T01:10:54.967Z,98636.81
2022-11-08T01:13:23.077Z,98628.50
2022-11-08T01:15:51.148Z,98624.66
2022-11-08T01:18:19.553Z,98632.81
2022-11-08T01:20:49.929Z,98636.16
2022-11-08T01:23:21.301Z,98630.78
2022-11-08T01:25:50.995Z,98622.69
2022-11-08T01:28:19.318Z,98617.56
2022-11-08T01:30:47.931Z,98617.03
2022-11-08T01:33:16.553Z,98626.34
2022-11-08T01:35:46.301Z,98628.09
2022-11-08T01:38:14.575Z,98619.28
2022-11-08T01:40:48.428Z,98620.53
2022-11-08T01:43:34.033Z,98611.13
2022-11-08T01:46:38.194Z,98608.06
2022-11-08T01:49:28.616Z,98601.59
2022-11-08T01:52:07.521Z,98605.72
2022-11-08T01:54:40.421Z,98598.47
2022-11-08T01:57:12.394Z,98592.06
2022-11-08T01:59:44.465Z,98581.97
2022-11-08T02:02:13.500Z,98582.88
2022-11-08T02:04:43.292Z,98585.94
2022-11-08T02:07:14.016Z,98572.28
2022-11-08T02:09:44.600Z,98570.16
2022-11-08T02:12:15.602Z,98566.97
2022-11-08T02:14:43.357Z,98566.25
2022-11-08T02:17:11.453Z,98561.84
2022-11-08T02:19:45.139Z,98562.44
2022-11-08T02:22:27.240Z,98557.72
2022-11-08T02:24:58.299Z,98548.19
2022-11-08T02:27:26.279Z,98554.91
2022-11-08T02:29:55.127Z,98551.38
2022-11-08T02:32:22.969Z,98547.13
2022-11-08T02:34:55.506Z,98549.28
2022-11-08T02:37:24.534Z,98537.88
2022-11-08T02:39:52.263Z,98544.09
2022-11-08T02:42:21.877Z,98536.91
2022-11-08T02:44:52.139Z,98536.75
2022-11-08T02:47:19.904Z,98532.69
2022-11-08T02:49:50.104Z,98529.50
2022-11-08T02:52:17.857Z,98532.69
2022-11-08T02:54:45.547Z,98526.09
2022-11-08T02:57:15.369Z,98528.16
2022-11-08T02:59:44.484Z,98518.75
2022-11-08T03:02:12.315Z,98523.47
2022-11-08T03:04:40.107Z,98522.41
2022-11-08T03:07:07.998Z,98522.63
2022-11-08T03:09:35.682Z,98524.50
2022-11-08T03:12:03.509Z,98520.88
2022-11-08T03:14:31.354Z,98519.03
2022-11-08T03:17:00.409Z,98524.75
2022-11-08T03:19:28.150Z,98510.41
2022-11-08T03:21:55.941Z,98515.47
2022-11-08T03:24:23.718Z,98514.31
2022-11-08T03:26:51.429Z,98515.06
2022-11-08T03:29:19.328Z,98522.50
2022-11-08T03:31:47.133Z,98524.91
2022-11-08T03:34:16.457Z,98527.69
2022-11-08T03:36:46.406Z,98521.59
2022-11-08T03:39:14.292Z,98524.28
2022-11-08T03:41:42.089Z,98521.44
2022-11-08T03:44:09.954Z,98520.47
2022-11-08T03:46:37.688Z,98524.91
2022-11-08T03:49:05.501Z,98522.19
2022-11-08T03:51:34.630Z,98523.84
2022-11-08T03:54:02.489Z,98527.69
2022-11-08T03:56:30.185Z,98515.84
2022-11-08T03:58:57.994Z,98514.03
2022-11-08T04:01:25.773Z,98518.72
2022-11-08T04:03:53.597Z,98521.91
2022-11-08T04:06:21.409Z,98517.84
2022-11-08T04:08:50.705Z,98515.91
2022-11-08T04:11:35.882Z,98519.03
2022-11-08T04:14:21.171Z,98519.03
2022-11-08T04:16:48.906Z,98516.25
2022-11-08T04:19:34.119Z,98513.09
2022-11-08T04:22:01.882Z,98514.88
2022-11-08T04:24:30.940Z,98507.31
2022-11-08T04:26:58.681Z,98508.88
2022-11-08T04:29:26.620Z,98507.56
2022-11-08T04:31:54.446Z,98505.19
2022-11-08T04:34:22.273Z,98507.63
2022-11-08T04:36:49.981Z,98508.56
2022-11-08T04:39:17.711Z,98499.19
2022-11-08T04:41:46.847Z,98496.81
2022-11-08T04:44:15.522Z,98488.94
2022-11-08T04:46:43.261Z,98490.94
2022-11-08T04:49:10.957Z,98490.56
2022-11-08T04:51:38.733Z,98487.25
2022-11-08T04:54:07.704Z,98487.16
2022-11-08T04:56:35.707Z,98470.97
2022-11-08T04:59:08.371Z,98482.72
2022-11-08T05:01:39.577Z,98469.03
2022-11-08T05:04:07.327Z,98467.75
2022-11-08T05:06:35.024Z,98470.19
2022-11-08T05:09:04.965Z,98471.91
2022-11-08T05:11:32.901Z,98460.50
2022-11-08T05:14:00.617Z,98455.00
2022-11-08T05:16:31.824Z,98463.88
2022-11-08T05:19:00.180Z,98461.66
2022-11-08T05:21:45.823Z,98462.94
2022-11-08T05:24:16.553Z,98463.91
2022-11-08T05:26:46.282Z,98463.34
2022-11-08T05:29:15.541Z,98462.66
2022-11-08T05:31:46.956Z,98463.63
2022-11-08T05:34:15.356Z,98467.63
2022-11-08T05:36:43.173Z,98465.56
2022-11-08T05:39:11.002Z,98468.06
2022-11-08T05:41:38.746Z,98465.69
2022-11-08T05:44:06.662Z,98467.19
2022-11-08T05:46:35.192Z,98457.88
2022-11-08T05:49:04.259Z,98455.59
2022-11-08T05:51:32.643Z,98456.44
2022-11-08T05:54:00.417Z,98453.38
2022-11-08T05:56:28.305Z,98456.16
2022-11-08T05:58:56.010Z,98454.28
2022-11-08T06:01:23.848Z,98454.09
2022-11-08T06:03:51.671Z,98455.66
2022-11-08T06:06:22.104Z,98457.22
2022-11-08T06:08:52.429Z,98450.19
2022-11-08T06:11:24.435Z,98455.66
2022-11-08T06:13:53.004Z,98446.75
2022-11-08T06:16:24.422Z,98446.31
2022-11-08T06:18:52.558Z,98447.59
2022-11-08T06:21:22.948Z,98447.81
2022-11-08T06:23:53.664Z,98438.03
2022-11-08T06:26:24.689Z,98439.09
2022-11-08T06:28:54.502Z,98444.69
2022-11-08T06:31:22.267Z,98449.97
2022-11-08T06:33:52.216Z,98455.38
2022-11-08T06:36:21.529Z,98458.44
2022-11-08T06:38:49.993Z,98458.34
2022-11-08T06:41:20.376Z,98458.09
2022-11-08T06:43:48.305Z,98455.09
2022-11-08T06:46:16.046Z,98457.34
2022-11-08T06:48:43.778Z,98452.88
2022-11-08T06:51:11.566Z,98448.16
2022-11-08T06:53:43.031Z,98447.72
2022-11-08T06:56:10.823Z,98456.50
2022-11-08T06:58:39.013Z,98449.25
2022-11-08T07:01:08.909Z,98446.94
2022-11-08T07:03:36.739Z,98446.56
2022-11-08T07:06:05.935Z,98449.53
2022-11-08T07:08:35.028Z,98448.94
2022-11-08T07:11:04.613Z,98446.38
2022-11-08T07:13:32.432Z,98444.16
2022-11-08T07:16:01.377Z,98450.59
2022-11-08T07:18:30.055Z,98460.41
2022-11-08T07:21:01.889Z,98455.09
2022-11-08T07:23:32.469Z,98462.88
2022-11-08T07:26:02.897Z,98467.31
2022-11-08T07:28:32.505Z,98469.34
2022-11-08T07:31:01.995Z,98471.50
2022-11-08T07:33:29.891Z,98473.44
2022-11-08T07:35:57.965Z,98480.75
2022-11-08T07:38:26.379Z,98471.66
2022-11-08T07:40:57.656Z,98470.41
2022-11-08T07:43:25.859Z,98469.25
2022-11-08T07:45:58.818Z,98475.00
2022-11-08T07:48:28.037Z,98464.47
2022-11-08T07:50:56.099Z,98465.00
2022-11-08T07:53:24.453Z,98461.69
2022-11-08T07:55:53.289Z,98455.72
2022-11-08T07:58:21.067Z,98445.69
2022-11-08T08:00:49.895Z,98433.66
2022-11-08T08:03:19.543Z,98413.31
2022-11-08T08:05:56.492Z,98405.28
2022-11-08T08:08:27.343Z,98416.94
2022-11-08T08:10:58.407Z,98405.44
2022-11-08T08:13:29.123Z,98403.25
2022-11-08T08:15:59.567Z,98408.88
2022-11-08T08:18:29.311Z,98416.00
2022-11-08T08:20:57.156Z,98426.09
2022-11-08T08:23:24.979Z,98429.06
2022-11-08T08:25:52.803Z,98449.41
2022-11-08T08:28:20.597Z,98448.06
2022-11-08T08:30:50.648Z,98446.50
2022-11-08T08:33:34.854Z,98437.97
2022-11-08T08:36:04.944Z,98442.00
2022-11-08T08:38:33.707Z,98441.91
2022-11-08T08:41:02.553Z,98439.41
2022-11-08T08:43:32.341Z,98433.09
2022-11-08T08:46:00.850Z,98440.53
2022-11-08T08:48:29.078Z,98445.84
2022-11-08T08:50:56.894Z,98448.53
2022-11-08T08:53:26.308Z,98445.91
2022-11-08T08:55:54.016Z,98445.03
2022-11-08T08:58:22.505Z,98442.91
2022-11-08T09:03:38.641Z,98446.59
2022-11-08T09:06:06.621Z,98444.09
2022-11-08T09:08:35.770Z,98437.25
2022-11-08T09:11:05.985Z,98439.22
2022-11-08T09:13:33.806Z,98450.66
2022-11-08T09:16:03.468Z,98458.56
2022-11-08T09:18:31.709Z,98453.03
2022-11-08T09:20:59.603Z,98453.97
2022-11-08T09:23:27.876Z,98450.38
2022-11-08T09:26:00.416Z,98460.31
2022-11-08T09:28:31.430Z,98457.06
2022-11-08T09:31:03.884Z,98452.38
2022-11-08T09:33:31.658Z,98462.03
2022-11-08T09:36:00.349Z,98464.66
2022-11-08T09:38:28.430Z,98456.25
2022-11-08T09:41:21.019Z,98457.72
2022-11-08T09:44:06.636Z,98460.47
2022-11-08T09:46:40.932Z,98460.34
2022-11-08T09:49:16.438Z,98468.66
2022-11-08T09:51:44.244Z,98462.16
2022-11-08T09:54:21.801Z,98461.16
2022-11-08T09:56:52.838Z,98467.59
2022-11-08T09:59:38.262Z,98466.34
2022-11-08T10:02:17.851Z,98472.25
2022-11-08T10:04:54.553Z,98475.16
2022-11-08T10:07:33.690Z,98468.53
2022-11-08T10:10:43.291Z,98460.94
2022-11-08T10:13:22.542Z,98458.38
2022-11-08T10:15:58.746Z,98459.06
2022-11-08T10:18:50.814Z,98453.50
2022-11-08T10:21:32.002Z,98458.91
2022-11-08T10:24:04.997Z,98454.78
2022-11-08T10:26:38.602Z,98461.06
2022-11-08T10:29:17.401Z,98449.72
2022-11-08T10:31:47.957Z,98435.00
2022-11-08T10:34:21.332Z,98440.63
2022-11-08T10:36:53.437Z,98441.31
2022-11-08T10:39:25.309Z,98434.09
2022-11-08T10:42:01.790Z,98437.19
2022-11-08T10:44:30.941Z,98433.75
2022-11-08T10:47:04.430Z,98425.88
2022-11-08T10:49:35.275Z,98428.88
2022-11-08T10:52:17.245Z,98421.88
2022-11-08T10:54:51.240Z,98418.59
2022-11-08T10:57:25.386Z,98421.03
2022-11-08T10:59:55.659Z,98421.44
2022-11-08T11:02:28.564Z,98427.81
2022-11-08T11:05:25.559Z,98415.13
2022-11-08T11:08:06.452Z,98409.47
2022-11-08T11:10:36.266Z,98405.91
2022-11-08T11:13:10.722Z,98408.00
2022-11-08T11:15:45.347Z,98394.78
2022-11-08T11:18:27.171Z,98392.97
2022-11-08T11:21:03.976Z,98395.81
2022-11-08T11:23:41.989Z,98400.91
2022-11-08T11:26:19.355Z,98387.91
2022-11-08T11:29:07.471Z,98389.03
2022-11-08T11:31:38.943Z,98388.50
2022-11-08T11:34:40.364Z,98386.66
2022-11-08T11:37:19.576Z,98376.34
2022-11-08T11:39:58.927Z,98379.53
2022-11-08T11:42:45.833Z,98373.06
2022-11-08T11:45:19.850Z,98359.06
2022-11-08T11:47:54.208Z,98362.16
2022-11-08T11:50:32.204Z,98360.63
2022-11-08T11:53:01.514Z,98357.81
2022-11-08T11:55:43.005Z,98357.34
2022-11-08T11:58:24.751Z,98359.84
2022-11-08T12:01:00.180Z,98351.03
2022-11-08T12:03:44.711Z,98356.50
2022-11-08T12:06:28.525Z,98353.69
2022-11-08T12:09:21.948Z,98348.44
2022-11-08T12:11:59.778Z,98346.03
2022-11-08T12:14:40.494Z,98343.28
2022-11-08T12:17:24.023Z,98345.16
2022-11-08T12:20:08.286Z,98347.78
2022-11-08T12:22:49.199Z,98335.97
2022-11-08T12:25:25.214Z,98338.03
2022-11-08T12:27:56.159Z,98335.50
2022-11-08T12:30:29.465Z,98326.53
2022-11-08T12:33:13.795Z,98339.41
2022-11-08T12:35:55.265Z,98325.25
2022-11-08T12:38:32.289Z,98326.03
2022-11-08T12:41:05.627Z,98322.94
2022-11-08T12:43:45.254Z,98318.69
2022-11-08T12:46:18.224Z,98321.44
2022-11-08T12:49:03.307Z,98316.41
2022-11-08T12:51:43.255Z,98310.50
2022-11-08T12:54:23.489Z,98311.91
2022-11-08T12:56:53.790Z,98300.31
2022-11-08T12:59:27.294Z,98304.56
2022-11-08T13:01:55.846Z,98305.78
2022-11-08T13:04:42.310Z,98303.06
2022-11-08T13:07:25.521Z,98302.53
2022-11-08T13:10:00.560Z,98305.63
2022-11-08T13:12:41.966Z,98305.97
2022-11-08T13:15:17.787Z,98304.28
2022-11-08T13:18:18.424Z,98292.53
2022-11-08T13:20:48.224Z,98293.91
2022-11-08T13:23:24.428Z,98283.38
2022-11-08T13:25:53.559Z,98289.97
2022-11-08T13:28:42.136Z,98285.41
2022-11-08T13:31:40.508Z,98292.09
2022-11-08T13:34:27.200Z,98292.28
2022-11-08T13:37:06.252Z,98296.19
2022-11-08T13:40:07.520Z,98287.84
2022-11-08T13:42:41.938Z,98288.66
2022-11-08T13:45:26.675Z,98286.56
2022-11-08T13:47:57.857Z,98291.28
2022-11-08T13:50:47.206Z,98298.50
2022-11-08T13:53:54.288Z,98293.06
2022-11-08T13:56:49.437Z,98299.97
2022-11-08T13:59:58.962Z,98293.66
2022-11-08T14:02:40.978Z,98287.22
2022-11-08T14:05:30.259Z,98289.72
2022-11-08T14:08:21.999Z,98288.00
2022-11-08T14:11:34.339Z,98290.84
2022-11-08T14:14:39.276Z,98288.81
2022-11-08T14:17:31.540Z,98292.88
2022-11-08T14:20:18.019Z,98286.97
2022-11-08T14:22:50.103Z,98289.28
2022-11-08T14:25:23.444Z,98282.81
2022-11-08T14:27:51.519Z,98293.00
2022-11-08T14:30:23.302Z,98300.59
2022-11-08T14:33:06.819Z,98298.97
2022-11-08T14:35:34.747Z,98298.06
2022-11-08T14:38:02.500Z,98288.63
2022-11-08T14:40:30.727Z,98285.22
2022-11-08T14:42:58.662Z,98292.19
2022-11-08T14:45:30.428Z,98292.38
2022-11-08T14:48:04.527Z,98291.06
2022-11-08T14:50:35.613Z,98288.75
2022-11-08T14:53:22.292Z,98296.47
2022-11-08T14:55:57.038Z,98292.72
2022-11-08T14:58:29.036Z,98297.66
2022-11-08T15:00:59.720Z,98288.63
2022-11-08T15:03:31.789Z,98288.97
2022-11-08T15:06:01.396Z,98286.63
2022-11-08T15:08:33.448Z,98287.69
2022-11-08T15:11:03.786Z,98280.00
2022-11-08T15:13:34.789Z,98283.31
2022-11-08T15:16:06.165Z,98278.81
2022-11-08T15:18:37.279Z,98276.81
2022-11-08T15:21:07.223Z,98278.41
2022-11-08T15:23:44.028Z,98280.59
2022-11-08T15:26:20.105Z,98274.09
2022-11-08T15:29:03.231Z,98280.09
2022-11-08T15:31:36.275Z,98276.16
2022-11-08T15:34:04.480Z,98273.97
2022-11-08T15:36:35.315Z,98278.97
2022-11-08T15:39:05.338Z,98275.78
2022-11-08T15:41:38.143Z,98278.78
2022-11-08T15:44:20.513Z,98275.44
2022-11-08T15:46:50.003Z,98270.53
2022-11-08T15:49:20.886Z,98278.44
2022-11-08T15:51:49.676Z,98273.03
2022-11-08T15:54:18.352Z,98277.28
2022-11-08T15:56:47.558Z,98280.66
2022-11-08T15:59:21.315Z,98274.66
2022-11-08T16:01:57.531Z,98267.97
2022-11-08T16:04:25.707Z,98274.69
2022-11-08T16:06:53.711Z,98276.16
2022-11-08T16:09:21.765Z,98276.06
2022-11-08T16:11:50.715Z,98273.22
2022-11-08T16:14:21.089Z,98279.75
2022-11-08T16:16:49.001Z,98281.59
2022-11-08T16:19:23.334Z,98289.94
2022-11-08T16:21:52.032Z,98291.09
2022-11-08T16:24:20.671Z,98289.59
2022-11-08T16:26:49.606Z,98286.88
2022-11-08T16:29:21.458Z,98288.06
2022-11-08T16:31:52.192Z,98291.88
2022-11-08T16:34:22.048Z,98288.91
2022-11-08T16:36:50.786Z,98283.09
2022-11-08T16:39:26.094Z,98277.53
2022-11-08T16:41:53.979Z,98278.31
2022-11-08T16:44:23.073Z,98264.56
2022-11-08T16:46:54.972Z,98272.06
2022-11-08T16:49:26.980Z,98265.72
2022-11-08T16:51:54.679Z,98261.72
2022-11-08T16:54:28.291Z,98264.44
2022-11-08T16:57:20.808Z,98264.75
2022-11-08T16:59:44.659Z,98258.50
2022-11-08T17:02:21.783Z,98256.09
2022-11-08T17:04:53.219Z,98255.25
2022-11-08T17:07:21.147Z,98257.59
2022-11-08T17:09:48.983Z,98261.56
2022-11-08T17:12:16.735Z,98257.00
2022-11-08T17:14:44.504Z,98266.34
2022-11-08T17:17:13.125Z,98262.16
2022-11-08T17:19:40.916Z,98268.94
2022-11-08T17:22:10.142Z,98274.88
2022-11-08T17:24:38.135Z,98283.38
2022-11-08T17:27:05.860Z,98279.44
2022-11-08T17:29:33.588Z,98280.06
2022-11-08T17:32:01.295Z,98280.34
2022-11-08T17:34:29.513Z,98290.75
2022-11-08T17:36:57.272Z,98289.66
2022-11-08T17:39:26.392Z,98285.56
2022-11-08T17:41:54.134Z,98289.88
2022-11-08T17:44:21.851Z,98289.03
2022-11-08T17:46:50.307Z,98292.06
2022-11-08T17:49:18.162Z,98293.97
2022-11-08T17:51:46.177Z,98299.59
2022-11-08T17:54:14.113Z,98289.56
2022-11-08T17:56:43.654Z,98297.00
2022-11-08T17:59:11.670Z,98292.41
2022-11-08T18:01:39.675Z,98289.94
2022-11-08T18:04:11.158Z,98286.13
2022-11-08T18:06:39.612Z,98281.88
2022-11-08T18:09:07.437Z,98286.66
2022-11-08T18:11:35.594Z,98286.66
2022-11-08T18:14:05.776Z,98293.41
2022-11-08T18:16:34.253Z,98291.75
2022-11-08T18:19:02.063Z,98302.94
2022-11-08T18:21:30.014Z,98303.81
2022-11-08T18:23:59.788Z,98303.63
2022-11-08T18:26:28.287Z,98308.28
2022-11-08T18:28:56.092Z,98304.25
2022-11-08T18:31:29.755Z,98307.59
2022-11-08T18:33:58.187Z,98308.38
2022-11-08T18:36:28.295Z,98312.19
2022-11-08T18:38:57.821Z,98320.28
2022-11-08T18:41:27.106Z,98313.03
2022-11-08T18:43:55.331Z,98319.47
2022-11-08T18:46:24.912Z,98313.03
2022-11-08T18:48:55.201Z,98310.53
2022-11-08T18:51:23.948Z,98322.25
2022-11-08T18:53:52.869Z,98315.28
2022-11-08T18:56:21.364Z,98318.47
2022-11-08T18:58:49.443Z,98325.88
2022-11-08T19:01:17.514Z,98314.28
2022-11-08T19:03:46.088Z,98317.78
2022-11-08T19:06:15.143Z,98321.09
2022-11-08T19:08:42.885Z,98328.66
2022-11-08T19:11:12.945Z,98322.22
2022-11-08T19:13:41.890Z,98321.97
2022-11-08T19:16:12.989Z,98308.22
2022-11-08T19:18:42.178Z,98309.63
2022-11-08T19:21:13.658Z,98309.09
2022-11-08T19:23:42.962Z,98307.97
2022-11-08T19:26:14.122Z,98308.09
2022-11-08T19:28:45.019Z,98310.63
2022-11-08T19:31:14.294Z,98313.84
2022-11-08T19:33:42.450Z,98312.72
2022-11-08T19:36:13.898Z,98302.38
2022-11-08T19:38:43.591Z,98290.94
2022-11-08T19:41:13.320Z,98293.47
2022-11-08T19:43:43.089Z,98283.81
2022-11-08T19:46:14.263Z,98286.78
2022-11-08T19:48:43.801Z,98289.28
2022-11-08T19:51:14.672Z,98278.25
2022-11-08T19:53:44.162Z,98292.06
2022-11-08T19:56:15.556Z,98297.41
2022-11-08T19:58:44.288Z,98298.50
2022-11-08T20:01:14.840Z,98308.28
2022-11-08T20:03:42.918Z,98302.91
2022-11-08T20:06:11.971Z,98302.56
2022-11-08T20:08:40.090Z,98308.41
2022-11-08T20:11:13.247Z,98314.16
2022-11-08T20:13:41.692Z,98308.91
2022-11-08T20:16:13.869Z,98314.13
2022-11-08T20:18:44.329Z,98320.31
2022-11-08T20:21:14.441Z,98325.09
2022-11-08T20:23:43.492Z,98333.06
2022-11-08T20:26:16.317Z,98335.16
2022-11-08T20:28:55.865Z,98331.13
2022-11-08T20:31:26.046Z,98340.38
2022-11-08T20:33:56.214Z,98336.28
2022-11-08T20:36:25.879Z,98330.84
2022-11-08T20:38:58.288Z,98329.31
2022-11-08T20:41:30.245Z,98328.06
2022-11-08T20:43:57.986Z,98321.38
2022-11-08T20:46:27.874Z,98323.34
2022-11-08T20:49:00.175Z,98320.16
2022-11-08T20:51:29.813Z,98312.75
2022-11-08T20:53:58.620Z,98326.16
2022-11-08T20:56:27.214Z,98323.34
2022-11-08T20:58:56.513Z,98329.94
2022-11-08T21:01:26.694Z,98328.94
2022-11-08T21:03:55.177Z,98313.00
2022-11-08T21:06:24.990Z,98316.41
2022-11-08T21:11:41.244Z,98320.00
2022-11-08T21:14:10.391Z,98319.69
2022-11-08T21:17:06.791Z,98314.41
2022-11-08T21:19:26.762Z,98320.28
2022-11-08T21:22:14.454Z,98317.59
2022-11-08T21:24:42.743Z,98320.91
2022-11-08T21:27:10.980Z,98316.78
2022-11-08T21:29:40.230Z,98323.31
2022-11-08T21:32:08.377Z,98324.44
2022-11-08T21:34:36.353Z,98313.00
2022-11-08T21:37:04.150Z,98326.13
2022-11-08T21:39:31.866Z,98326.22
2022-11-08T21:42:01.614Z,98318.31
2022-11-08T21:44:29.328Z,98321.13
2022-11-08T21:47:00.491Z,98323.63
2022-11-08T21:49:28.190Z,98316.81
2022-11-08T21:51:55.898Z,98322.94
2022-11-08T21:54:23.976Z,98329.50
2022-11-08T21:56:51.704Z,98337.31
2022-11-08T21:59:19.422Z,98334.78
2022-11-08T22:01:47.252Z,98339.22
2022-11-08T22:04:16.311Z,98335.81
2022-11-08T22:06:47.680Z,98331.88
2022-11-08T22:09:15.976Z,98336.06
2022-11-08T22:11:43.881Z,98339.75
2022-11-08T22:14:13.926Z,98343.03
2022-11-08T22:16:41.765Z,98334.22
2022-11-08T22:19:09.935Z,98331.28
2022-11-08T22:21:39.964Z,98330.31
2022-11-08T22:24:12.143Z,98335.34
2022-11-08T22:26:40.763Z,98334.66
2022-11-08T22:29:08.954Z,98346.09
2022-11-08T22:31:37.249Z,98338.13
2022-11-08T22:34:05.682Z,98337.56
2022-11-08T22:36:33.709Z,98333.25
2022-11-08T22:39:03.242Z,98337.56
2022-11-08T22:41:31.793Z,98337.50
2022-11-08T22:43:59.697Z,98338.72
2022-11-08T22:46:27.495Z,98334.84
2022-11-08T22:48:55.465Z,98337.41
2022-11-08T22:51:23.158Z,98331.81
2022-11-08T22:53:50.987Z,98326.22
2022-11-08T22:56:20.105Z,98320.78
2022-11-08T22:58:47.902Z,98318.84
2022-11-08T23:01:16.771Z,98323.19
2022-11-08T23:03:45.900Z,98322.19
2022-11-08T23:06:16.710Z,98313.28
2022-11-08T23:08:46.983Z,98315.50
2022-11-08T23:11:32.715Z,98327.75
2022-11-08T23:14:19.510Z,98327.09
2022-11-08T23:16:48.047Z,98320.81
2022-11-08T23:19:35.624Z,98311.84
2022-11-08T23:22:22.521Z,98318.56
2022-11-08T23:24:50.387Z,98325.34
2022-11-08T23:35:31.277Z,98314.81
2022-11-08T23:37:59.098Z,98318.41
2022-11-08T23:40:44.746Z,98321.34
2022-11-08T23:43:31.592Z,98320.09
2022-11-08T23:46:04.822Z,98316.56
2022-11-08T23:48:32.544Z,98316.81
2022-11-08T23:51:01.709Z,98325.28
2022-11-08T23:53:29.557Z,98320.81
